createdAt,value
2019-04-22T00:01:31.171Z,6.20
2019-04-22T00:04:04.867Z,6.10
2019-04-22T00:06:50.027Z,6.00
2019-04-22T00:09:26.724Z,6.00
2019-04-22T00:11:54.873Z,6.00
2019-04-22T00:14:20.390Z,6.10
2019-04-22T00:19:33.872Z,5.90
2019-04-22T00:21:55.135Z,5.80
2019-04-22T00:24:25.137Z,5.80
2019-04-22T00:26:59.877Z,5.80
2019-04-22T00:29:46.581Z,5.70
2019-04-22T00:31:58.975Z,5.60
2019-04-22T00:34:27.050Z,5.30
2019-04-22T00:37:02.615Z,5.30
2019-04-22T00:39:35.701Z,5.40
2019-04-22T00:44:42.655Z,5.40
2019-04-22T00:47:14.667Z,5.40
2019-04-22T00:50:06.623Z,5.30
2019-04-22T00:54:37.957Z,5.40
2019-04-22T00:59:40.425Z,5.10
2019-04-22T01:02:08.826Z,5.00
2019-04-22T01:04:39.147Z,5.10
2019-04-22T01:07:06.281Z,4.90
2019-04-22T01:09:38.971Z,5.00
2019-04-22T01:12:07.523Z,4.90
2019-04-22T01:14:38.276Z,5.00
2019-04-22T01:17:05.997Z,4.90
2019-04-22T01:19:47.146Z,4.90
2019-04-22T01:22:12.879Z,4.80
2019-04-22T01:24:38.638Z,4.70
2019-04-22T01:27:04.877Z,4.80
2019-04-22T01:29:32.144Z,4.70
2019-04-22T01:31:51.066Z,4.50
2019-04-22T01:34:33.561Z,4.50
2019-04-22T01:37:07.618Z,4.40
2019-04-22T01:39:43.728Z,4.50
2019-04-22T01:42:13.778Z,4.60
2019-04-22T01:44:47.158Z,4.50
2019-04-22T01:47:23.176Z,4.40
2019-04-22T01:49:45.877Z,4.40
2019-04-22T01:52:18.664Z,4.30
2019-04-22T01:54:50.424Z,4.40
2019-04-22T01:57:18.746Z,4.20
2019-04-22T01:59:40.376Z,4.30
2019-04-22T02:02:19.055Z,4.20
2019-04-22T02:04:53.243Z,4.20
2019-04-22T02:07:16.994Z,4.10
2019-04-22T02:09:49.678Z,3.90
2019-04-22T02:12:19.361Z,3.80
2019-04-22T02:17:26.549Z,3.80
2019-04-22T02:19:53.083Z,3.80
2019-04-22T02:22:38.495Z,3.80
2019-04-22T02:24:56.470Z,3.90
2019-04-22T02:27:28.224Z,3.90
2019-04-22T02:29:52.011Z,4.00
2019-04-22T02:35:11.068Z,3.90
2019-04-22T02:37:26.594Z,3.80
2019-04-22T02:40:27.643Z,3.50
2019-04-22T02:42:43.531Z,3.70
2019-04-22T02:45:09.643Z,3.60
2019-04-22T02:47:45.483Z,3.60
2019-04-22T02:50:08.819Z,3.40
2019-04-22T03:00:21.697Z,3.40
2019-04-22T03:05:19.606Z,3.40
2019-04-22T03:07:53.725Z,3.40
2019-04-22T03:10:20.557Z,3.30
2019-04-22T03:12:49.494Z,3.30
2019-04-22T03:15:12.012Z,3.00
2019-04-22T03:17:47.359Z,2.90
2019-04-22T03:22:52.066Z,3.00
2019-04-22T03:27:40.108Z,3.00
2019-04-22T03:37:55.863Z,3.00
2019-04-22T03:40:36.889Z,3.00
2019-04-22T03:43:09.179Z,2.90
2019-04-22T03:52:56.524Z,2.90
2019-04-22T03:57:50.187Z,3.00
2019-04-22T04:00:30.804Z,3.00
2019-04-22T04:02:54.830Z,2.90
2019-04-22T04:05:33.631Z,2.80
2019-04-22T04:10:32.257Z,2.70
2019-04-22T04:17:51.348Z,2.70
2019-04-22T04:20:32.190Z,2.50
2019-04-22T04:30:31.594Z,2.50
2019-04-22T04:32:57.076Z,2.50
2019-04-22T04:40:28.811Z,2.50
2019-04-22T04:42:53.361Z,2.50
2019-04-22T04:48:02.492Z,2.70
2019-04-22T04:50:20.590Z,2.70
2019-04-22T04:55:28.520Z,2.90
2019-04-22T05:03:08.083Z,2.90
2019-04-22T05:07:56.053Z,3.50
2019-04-22T05:10:35.529Z,3.80
2019-04-22T05:15:24.488Z,4.30
2019-04-22T05:17:58.079Z,4.60
2019-04-22T05:30:26.891Z,5.60
2019-04-22T05:32:47.379Z,6.10
2019-04-22T05:35:23.022Z,6.40
2019-04-22T05:37:56.531Z,6.50
2019-04-22T05:40:24.077Z,6.90
2019-04-22T05:42:53.139Z,7.00
2019-04-22T05:45:21.719Z,7.20
2019-04-22T05:47:52.370Z,7.30
2019-04-22T05:50:18.733Z,7.70
2019-04-22T05:52:54.187Z,8.20
2019-04-22T05:57:51.275Z,8.40
2019-04-22T06:00:37.061Z,8.70
2019-04-22T06:05:29.502Z,9.00
2019-04-22T06:07:52.520Z,9.10
2019-04-22T06:12:56.305Z,9.10
2019-04-22T06:15:30.098Z,9.40
2019-04-22T06:18:12.416Z,10.00
2019-04-22T06:23:26.224Z,10.60
2019-04-22T06:26:07.388Z,11.20
2019-04-22T06:28:34.802Z,11.80
2019-04-22T06:30:57.352Z,12.00
2019-04-22T06:33:31.557Z,12.10
2019-04-22T06:36:08.196Z,12.20
2019-04-22T06:40:55.394Z,12.90
2019-04-22T06:43:22.139Z,13.30
2019-04-22T06:45:51.691Z,13.70
2019-04-22T06:48:27.933Z,13.80
2019-04-22T06:50:52.932Z,14.50
2019-04-22T06:53:23.967Z,14.80
2019-04-22T06:55:59.588Z,15.30
2019-04-22T06:58:22.038Z,14.70
2019-04-22T07:00:53.199Z,15.20
2019-04-22T07:06:05.426Z,15.40
2019-04-22T07:09:01.957Z,15.60
2019-04-22T07:10:58.277Z,15.70
2019-04-22T07:13:27.507Z,16.30
2019-04-22T07:15:57.799Z,16.60
2019-04-22T07:18:31.210Z,15.50
2019-04-22T07:20:58.268Z,16.00
2019-04-22T07:23:30.101Z,15.80
2019-04-22T07:25:58.435Z,16.00
2019-04-22T07:28:27.444Z,16.20
2019-04-22T07:30:57.708Z,15.70
2019-04-22T07:33:32.387Z,16.00
2019-04-22T07:36:25.689Z,16.30
2019-04-22T07:38:26.824Z,15.80
2019-04-22T07:40:55.922Z,16.30
2019-04-22T07:43:43.078Z,15.80
2019-04-22T07:46:00.077Z,16.50
2019-04-22T07:51:02.911Z,17.10
2019-04-22T07:53:27.899Z,17.40
2019-04-22T07:56:00.853Z,17.40
2019-04-22T07:58:32.194Z,17.50
2019-04-22T08:01:05.342Z,18.10
2019-04-22T08:03:38.105Z,18.20
2019-04-22T08:06:13.720Z,17.50
2019-04-22T08:08:29.143Z,17.30
2019-04-22T08:11:08.541Z,17.40
2019-04-22T08:13:34.199Z,17.60
2019-04-22T08:16:02.648Z,17.50
2019-04-22T08:18:34.391Z,18.40
2019-04-22T08:21:04.259Z,18.60
2019-04-22T08:23:36.520Z,18.70
2019-04-22T08:26:01.013Z,18.30
2019-04-22T08:28:42.225Z,18.50
2019-04-22T08:31:10.596Z,18.60
2019-04-22T08:33:33.347Z,18.70
2019-04-22T08:38:39.620Z,19.00
2019-04-22T08:41:23.027Z,18.90
2019-04-22T08:43:56.605Z,19.00
2019-04-22T08:46:23.581Z,19.50
2019-04-22T08:48:49.520Z,20.20
2019-04-22T08:51:20.968Z,19.30
2019-04-22T08:58:50.224Z,19.60
2019-04-22T09:03:52.783Z,20.00
2019-04-22T09:06:34.135Z,20.40
2019-04-22T09:08:55.184Z,20.20
2019-04-22T09:11:24.707Z,20.30
2019-04-22T09:13:57.189Z,20.30
2019-04-22T09:16:27.910Z,20.50
2019-04-22T09:18:48.546Z,20.50
2019-04-22T09:21:31.647Z,20.90
2019-04-22T09:23:55.662Z,20.60
2019-04-22T09:26:27.362Z,20.70
2019-04-22T09:28:50.980Z,20.60
2019-04-22T09:31:19.297Z,20.90
2019-04-22T09:33:47.646Z,21.10
2019-04-22T09:38:50.659Z,20.90
2019-04-22T09:41:18.913Z,21.10
2019-04-22T09:43:53.621Z,21.60
2019-04-22T09:46:24.452Z,21.10
2019-04-22T09:51:19.047Z,21.80
2019-04-22T09:54:02.340Z,21.80
2019-04-22T09:56:24.113Z,21.70
2019-04-22T10:01:38.546Z,21.90
2019-04-22T10:06:27.862Z,22.20
2019-04-22T10:11:31.064Z,22.30
2019-04-22T10:14:04.332Z,22.10
2019-04-22T10:21:38.130Z,22.30
2019-04-22T10:23:58.585Z,22.40
2019-04-22T10:26:31.812Z,22.10
2019-04-22T10:29:01.726Z,22.20
2019-04-22T10:31:31.092Z,22.00
2019-04-22T10:33:46.393Z,22.40
2019-04-22T10:36:01.402Z,22.70
2019-04-22T10:38:30.576Z,22.50
2019-04-22T10:41:00.703Z,22.50
2019-04-22T10:43:29.543Z,22.60
2019-04-22T10:45:58.036Z,22.60
2019-04-22T10:48:26.489Z,22.70
2019-04-22T10:50:54.991Z,22.60
2019-04-22T10:53:23.849Z,22.50
2019-04-22T10:55:52.483Z,22.40
2019-04-22T10:58:21.457Z,23.10
2019-04-22T11:00:52.340Z,23.00
2019-04-22T11:03:22.477Z,22.70
2019-04-22T11:05:53.782Z,23.20
2019-04-22T11:08:31.549Z,22.90
2019-04-22T11:11:08.380Z,23.20
2019-04-22T11:13:22.269Z,23.10
2019-04-22T11:15:51.030Z,23.00
2019-04-22T11:18:19.935Z,23.10
2019-04-22T11:20:49.549Z,23.20
2019-04-22T11:23:18.664Z,23.20
2019-04-22T11:25:48.000Z,22.60
2019-04-22T11:28:17.996Z,22.80
2019-04-22T11:30:48.092Z,23.00
2019-04-22T11:33:16.667Z,23.10
2019-04-22T11:35:45.902Z,23.00
2019-04-22T11:38:15.130Z,23.20
2019-04-22T11:40:49.750Z,22.50
2019-04-22T11:43:16.402Z,23.10
2019-04-22T11:45:45.152Z,23.10
2019-04-22T11:48:13.667Z,23.20
2019-04-22T11:50:42.210Z,23.40
2019-04-22T11:53:10.965Z,23.60
2019-04-22T11:55:40.613Z,23.40
2019-04-22T11:58:10.575Z,22.90
2019-04-22T12:00:39.326Z,23.50
2019-04-22T12:03:09.178Z,23.20
2019-04-22T12:05:37.838Z,23.40
2019-04-22T12:08:09.122Z,23.50
2019-04-22T12:10:44.113Z,23.50
2019-04-22T12:13:08.148Z,23.60
2019-04-22T12:15:37.327Z,23.70
2019-04-22T12:18:07.007Z,23.50
2019-04-22T12:20:36.863Z,23.60
2019-04-22T12:23:07.387Z,23.50
2019-04-22T12:25:47.593Z,23.60
2019-04-22T12:28:07.003Z,23.50
2019-04-22T12:30:35.499Z,23.70
2019-04-22T12:33:04.670Z,23.50
2019-04-22T12:35:34.591Z,23.20
2019-04-22T12:38:07.023Z,23.60
2019-04-22T12:40:44.729Z,23.60
2019-04-22T12:43:04.744Z,24.00
2019-04-22T12:45:34.188Z,23.70
2019-04-22T12:48:04.183Z,23.60
2019-04-22T12:50:35.762Z,23.40
2019-04-22T12:53:08.455Z,23.80
2019-04-22T12:55:34.195Z,24.00
2019-04-22T12:58:02.926Z,24.00
2019-04-22T13:00:32.237Z,24.30
2019-04-22T13:03:01.152Z,23.90
2019-04-22T13:05:31.234Z,24.40
2019-04-22T13:08:00.149Z,24.20
2019-04-22T13:10:40.539Z,24.20
2019-04-22T13:12:58.975Z,24.30
2019-04-22T13:15:28.854Z,23.70
2019-04-22T13:18:05.996Z,24.20
2019-04-22T13:20:28.202Z,24.00
2019-04-22T13:22:57.052Z,23.70
2019-04-22T13:25:28.313Z,23.60
2019-04-22T13:27:57.517Z,23.80
2019-04-22T13:30:28.277Z,23.80
2019-04-22T13:32:56.869Z,24.20
2019-04-22T13:35:26.262Z,23.90
2019-04-22T13:37:57.231Z,23.80
2019-04-22T13:40:26.004Z,24.00
2019-04-22T13:42:55.596Z,24.00
2019-04-22T13:45:25.570Z,24.00
2019-04-22T13:48:11.149Z,24.00
2019-04-22T13:53:42.807Z,24.00
2019-04-22T13:55:53.968Z,24.00
2019-04-22T13:58:08.710Z,24.20
2019-04-22T14:00:31.029Z,24.20
2019-04-22T14:03:02.411Z,24.20
2019-04-22T14:05:32.860Z,24.10
2019-04-22T14:08:04.281Z,24.10
2019-04-22T14:10:32.159Z,24.40
2019-04-22T14:13:02.023Z,24.40
2019-04-22T14:15:31.966Z,24.20
2019-04-22T14:18:01.004Z,24.20
2019-04-22T14:20:31.401Z,24.20
2019-04-22T14:22:59.769Z,24.10
2019-04-22T14:25:28.505Z,24.20
2019-04-22T14:28:03.562Z,24.20
2019-04-22T14:30:28.627Z,24.20
2019-04-22T14:32:58.026Z,24.10
2019-04-22T14:35:29.073Z,24.30
2019-04-22T14:37:58.246Z,24.30
2019-04-22T14:40:28.655Z,24.60
2019-04-22T14:43:23.277Z,24.60
2019-04-22T14:46:03.950Z,24.40
2019-04-22T14:48:20.035Z,24.10
2019-04-22T14:50:47.013Z,24.30
2019-04-22T14:53:19.184Z,24.50
2019-04-22T14:55:32.421Z,24.60
2019-04-22T14:57:59.240Z,24.50
2019-04-22T15:00:29.488Z,24.30
2019-04-22T15:02:59.622Z,24.30
2019-04-22T15:05:28.361Z,24.20
2019-04-22T15:07:57.201Z,24.20
2019-04-22T15:10:26.352Z,24.20
2019-04-22T15:12:58.462Z,24.10
2019-04-22T15:15:42.057Z,24.10
2019-04-22T15:18:13.553Z,24.00
2019-04-22T15:20:52.335Z,24.10
2019-04-22T15:23:20.358Z,24.20
2019-04-22T15:25:50.634Z,24.00
2019-04-22T15:28:19.618Z,23.90
2019-04-22T15:30:48.219Z,24.10
2019-04-22T15:33:17.249Z,24.20
2019-04-22T15:35:47.114Z,24.30
2019-04-22T15:38:15.749Z,24.00
2019-04-22T15:40:44.840Z,23.80
2019-04-22T15:43:14.832Z,24.00
2019-04-22T15:45:43.527Z,23.90
2019-04-22T15:48:11.963Z,23.90
2019-04-22T15:50:40.554Z,23.70
2019-04-22T15:53:09.822Z,23.70
2019-04-22T15:55:38.912Z,23.60
2019-04-22T15:58:08.002Z,23.70
2019-04-22T16:00:49.317Z,23.70
2019-04-22T16:03:09.101Z,23.60
2019-04-22T16:05:37.006Z,23.50
2019-04-22T16:08:06.745Z,23.40
2019-04-22T16:10:35.644Z,23.40
2019-04-22T16:13:11.354Z,23.00
2019-04-22T16:15:34.508Z,23.00
2019-04-22T16:18:04.735Z,23.00
2019-04-22T16:20:34.359Z,22.70
2019-04-22T16:23:24.602Z,22.80
2019-04-22T16:26:03.144Z,22.70
2019-04-22T16:28:33.319Z,22.60
2019-04-22T16:31:03.665Z,22.60
2019-04-22T16:33:36.056Z,22.40
2019-04-22T16:36:02.857Z,22.30
2019-04-22T16:38:32.919Z,22.40
2019-04-22T16:41:02.857Z,22.40
2019-04-22T16:43:32.781Z,22.30
2019-04-22T16:46:03.360Z,22.20
2019-04-22T16:48:31.900Z,22.20
2019-04-22T16:51:00.326Z,22.20
2019-04-22T16:53:29.486Z,22.20
2019-04-22T16:55:59.094Z,22.10
2019-04-22T16:58:28.617Z,22.10
2019-04-22T17:00:58.681Z,22.10
2019-04-22T17:03:34.696Z,22.20
2019-04-22T17:06:07.943Z,22.20
2019-04-22T17:08:36.992Z,22.10
2019-04-22T17:11:05.677Z,22.00
2019-04-22T17:13:36.139Z,22.10
2019-04-22T17:16:04.888Z,22.00
2019-04-22T17:18:35.076Z,22.00
2019-04-22T17:21:06.802Z,22.00
2019-04-22T17:23:35.781Z,21.90
2019-04-22T17:26:04.429Z,21.90
2019-04-22T17:28:33.435Z,21.80
2019-04-22T17:31:04.521Z,21.80
2019-04-22T17:33:33.284Z,21.80
2019-04-22T17:36:03.227Z,21.70
2019-04-22T17:38:42.778Z,21.60
2019-04-22T17:41:18.708Z,21.60
2019-04-22T17:46:25.133Z,21.50
2019-04-22T17:49:05.946Z,21.40
2019-04-22T17:51:55.097Z,21.40
2019-04-22T17:54:07.302Z,21.40
2019-04-22T17:56:41.934Z,21.30
2019-04-22T17:59:08.290Z,21.20
2019-04-22T18:01:38.338Z,21.20
2019-04-22T18:03:53.262Z,21.10
2019-04-22T18:06:46.600Z,21.00
2019-04-22T18:09:04.915Z,20.90
2019-04-22T18:12:01.136Z,20.90
2019-04-22T18:14:25.702Z,20.70
2019-04-22T18:16:42.780Z,20.60
2019-04-22T18:19:12.120Z,20.40
2019-04-22T18:21:36.186Z,20.30
2019-04-22T18:23:55.353Z,20.00
2019-04-22T18:26:35.982Z,19.90
2019-04-22T18:29:07.637Z,19.80
2019-04-22T18:31:31.735Z,19.80
2019-04-22T18:34:04.372Z,19.80
2019-04-22T18:36:37.230Z,19.70
2019-04-22T18:39:18.855Z,19.50
2019-04-22T18:41:40.984Z,19.40
2019-04-22T18:44:13.616Z,19.30
2019-04-22T18:46:42.697Z,19.20
2019-04-22T18:49:08.372Z,19.10
2019-04-22T18:51:51.300Z,19.00
2019-04-22T18:54:31.062Z,18.80
2019-04-22T18:56:58.779Z,18.80
2019-04-22T18:59:14.627Z,18.70
2019-04-22T19:01:39.451Z,18.70
2019-04-22T19:04:14.126Z,18.50
2019-04-22T19:07:20.367Z,18.20
2019-04-22T19:09:38.276Z,18.20
2019-04-22T19:12:18.138Z,18.10
2019-04-22T19:14:43.699Z,18.00
2019-04-22T19:17:15.308Z,17.90
2019-04-22T19:22:02.227Z,17.70
2019-04-22T19:24:28.917Z,17.80
2019-04-22T19:27:02.292Z,17.90
2019-04-22T19:29:39.891Z,17.80
2019-04-22T19:32:02.270Z,17.70
2019-04-22T19:34:32.290Z,17.60
2019-04-22T19:37:05.653Z,17.60
2019-04-22T19:39:34.209Z,17.50
2019-04-22T19:42:09.589Z,17.30
2019-04-22T19:44:37.481Z,17.30
2019-04-22T19:47:22.605Z,17.10
2019-04-22T19:49:48.111Z,17.00
2019-04-22T19:52:11.378Z,16.90
2019-04-22T19:54:38.985Z,16.80
2019-04-22T19:56:58.834Z,16.70
2019-04-22T19:59:54.298Z,16.60
2019-04-22T20:02:22.205Z,16.50
2019-04-22T20:05:12.935Z,16.40
2019-04-22T20:07:40.122Z,16.40
2019-04-22T20:10:18.972Z,16.30
2019-04-22T20:12:40.454Z,16.30
2019-04-22T20:15:10.099Z,16.20
2019-04-22T20:18:00.625Z,16.20
2019-04-22T20:20:23.040Z,16.10
2019-04-22T20:22:46.731Z,16.00
2019-04-22T20:25:05.462Z,16.00
2019-04-22T20:27:47.334Z,16.00
2019-04-22T20:30:17.273Z,15.90
2019-04-22T20:32:41.392Z,15.80
2019-04-22T20:35:18.011Z,15.70
2019-04-22T20:37:47.149Z,15.70
2019-04-22T20:40:20.100Z,15.80
2019-04-22T20:43:17.554Z,15.60
2019-04-22T20:45:15.302Z,15.60
2019-04-22T20:47:40.440Z,15.50
2019-04-22T20:50:19.529Z,15.50
2019-04-22T20:52:54.169Z,15.40
2019-04-22T20:55:13.667Z,15.20
2019-04-22T20:57:50.127Z,15.20
2019-04-22T21:00:18.070Z,15.20
2019-04-22T21:02:39.060Z,15.10
2019-04-22T21:05:04.272Z,15.10
2019-04-22T21:07:53.945Z,14.90
2019-04-22T21:10:11.486Z,14.90
2019-04-22T21:12:39.982Z,14.90
2019-04-22T21:15:20.473Z,14.80
2019-04-22T21:17:44.676Z,14.70
2019-04-22T21:20:26.074Z,14.70
2019-04-22T21:22:51.206Z,14.70
2019-04-22T21:25:14.188Z,14.60
2019-04-22T21:27:50.933Z,14.60
2019-04-22T21:30:19.867Z,14.60
2019-04-22T21:32:44.930Z,14.50
2019-04-22T21:35:31.840Z,14.50
2019-04-22T21:38:00.324Z,14.50
2019-04-22T21:40:24.491Z,14.30
2019-04-22T21:42:53.108Z,14.30
2019-04-22T21:45:14.638Z,14.20
2019-04-22T21:47:57.724Z,14.20
2019-04-22T21:50:35.709Z,14.10
2019-04-22T21:52:59.441Z,14.20
2019-04-22T21:55:26.461Z,14.20
2019-04-22T21:58:02.907Z,14.20
2019-04-22T22:00:37.444Z,14.20
2019-04-22T22:03:01.642Z,14.10
2019-04-22T22:05:22.406Z,14.00
2019-04-22T22:07:48.022Z,14.00
2019-04-22T22:10:27.109Z,14.00
2019-04-22T22:13:00.779Z,14.00
2019-04-22T22:15:30.262Z,14.00
2019-04-22T22:17:55.498Z,14.00
2019-04-22T22:20:23.950Z,14.00
2019-04-22T22:23:12.560Z,13.90
2019-04-22T22:25:28.081Z,13.90
2019-04-22T22:27:54.874Z,13.90
2019-04-22T22:33:05.905Z,13.80
2019-04-22T22:35:31.473Z,13.80
2019-04-22T22:37:55.142Z,13.70
2019-04-22T22:40:18.233Z,13.70
2019-04-22T22:42:48.017Z,13.70
2019-04-22T22:45:22.486Z,13.60
2019-04-22T22:48:09.471Z,13.50
2019-04-22T22:50:30.329Z,13.50
2019-04-22T22:53:14.428Z,13.50
2019-04-22T22:55:37.208Z,13.50
2019-04-22T22:58:12.236Z,13.40
2019-04-22T23:00:35.233Z,13.30
2019-04-22T23:03:37.670Z,13.30
2019-04-22T23:05:49.201Z,13.30
2019-04-22T23:08:17.053Z,13.20
2019-04-22T23:10:52.165Z,13.20
2019-04-22T23:13:14.634Z,13.10
2019-04-22T23:15:34.275Z,13.10
2019-04-22T23:17:50.005Z,13.00
2019-04-22T23:20:28.902Z,13.00
2019-04-22T23:23:14.418Z,13.00
2019-04-22T23:25:45.026Z,12.90
2019-04-22T23:28:12.545Z,12.90
2019-04-22T23:30:52.842Z,12.90
2019-04-22T23:33:39.193Z,12.90
2019-04-22T23:36:07.271Z,12.80
2019-04-22T23:38:50.507Z,12.70
2019-04-22T23:41:55.489Z,12.60
2019-04-22T23:44:10.042Z,12.50
2019-04-22T23:46:38.480Z,12.50
2019-04-22T23:49:04.550Z,12.50
2019-04-22T23:51:39.280Z,12.50
2019-04-22T23:54:18.731Z,12.40
2019-04-22T23:56:34.851Z,12.40
2019-04-22T23:59:18.323Z,12.40
